Time;durP1;ratioP1;P1;durP2;ratioP2;P2;SDS_P1;SDS_P2;PMS_P1;PMS_P2;Temp;Humidity;BMP_temperature;BMP_pressure;BME280_temperature;BME280_humidity;BME280_pressure;Samples;Min_cycle;Max_cycle;Signal;HPM_P1;HPM_P2
2022/08/16 00:02:08;;;;;;;1.50;1.00;;;17.50;99.90;;;;;;5110041;28;20508;-49
2022/08/16 00:04:35;;;;;;;2.23;1.00;;;17.60;99.90;;;;;;5110099;28;20839;-48
2022/08/16 00:07:02;;;;;;;2.53;1.40;;;17.60;99.90;;;;;;5109474;28;20509;-47
2022/08/16 00:09:30;;;;;;;2.40;1.37;;;17.40;99.90;;;;;;5109762;28;20478;-49
2022/08/16 00:11:58;;;;;;;2.13;0.90;;;17.40;99.90;;;;;;5110047;28;20427;-47
2022/08/16 00:14:30;;;;;;;1.67;1.33;;;17.30;99.90;;;;;;5109678;28;20473;-48
2022/08/16 00:16:58;;;;;;;1.50;1.10;;;17.00;99.90;;;;;;5109888;28;20515;-47
2022/08/16 00:19:29;;;;;;;1.60;1.13;;;17.10;99.90;;;;;;5109571;28;20968;-48
2022/08/16 00:21:57;;;;;;;1.40;0.93;;;17.20;99.90;;;;;;5109618;28;20427;-48
2022/08/16 00:24:26;;;;;;;3.30;0.90;;;17.10;99.90;;;;;;5109902;28;20927;-49
2022/08/16 00:26:53;;;;;;;1.50;1.10;;;17.10;99.90;;;;;;5109624;28;20470;-48
2022/08/16 00:29:22;;;;;;;3.40;1.33;;;16.60;99.90;;;;;;5109594;28;20457;-47
2022/08/16 00:31:51;;;;;;;3.00;1.37;;;16.60;99.90;;;;;;5109661;28;20946;-49
2022/08/16 00:34:20;;;;;;;2.10;0.97;;;16.80;99.90;;;;;;5109478;28;20458;-47
2022/08/16 00:36:48;;;;;;;1.87;1.23;;;17.00;99.90;;;;;;5109644;28;20858;-48
2022/08/16 00:39:16;;;;;;;2.60;1.30;;;17.30;99.90;;;;;;5111988;28;20488;-47
2022/08/16 00:41:45;;;;;;;1.70;1.00;;;17.40;99.90;;;;;;5113001;28;20804;-47
2022/08/16 00:44:13;;;;;;;1.90;1.13;;;17.40;99.90;;;;;;5113362;28;20430;-48
2022/08/16 00:46:48;;;;;;;1.57;0.90;;;17.10;99.90;;;;;;5113010;28;20507;-47
2022/08/16 00:49:15;;;;;;;1.60;0.90;;;17.20;99.90;;;;;;5112875;28;20845;-47
2022/08/16 00:51:43;;;;;;;1.50;1.00;;;17.00;99.90;;;;;;5113106;28;20431;-50
2022/08/16 00:54:11;;;;;;;1.73;1.50;;;16.60;99.90;;;;;;5112730;28;20535;-47
2022/08/16 00:56:40;;;;;;;1.53;1.00;;;16.50;99.90;;;;;;5112757;28;20493;-47
2022/08/16 00:59:11;;;;;;;2.10;1.33;;;16.70;99.90;;;;;;5112761;27;20450;-49
2022/08/16 01:01:38;;;;;;;2.87;1.47;;;16.80;99.90;;;;;;5112974;28;20503;-48
2022/08/16 01:04:08;;;;;;;1.30;0.90;;;16.70;99.90;;;;;;5112912;28;20456;-49
2022/08/16 01:06:36;;;;;;;1.63;1.00;;;16.80;99.90;;;;;;5112367;28;20453;-48
2022/08/16 01:09:06;;;;;;;1.70;1.20;;;16.80;99.90;;;;;;5112603;28;20523;-48
2022/08/16 01:11:36;;;;;;;2.60;1.50;;;16.80;99.90;;;;;;5112572;28;20427;-49
2022/08/16 01:14:07;;;;;;;1.70;1.60;;;16.50;99.90;;;;;;5112701;28;20555;-48
2022/08/16 01:16:36;;;;;;;2.30;1.10;;;16.60;99.90;;;;;;5112469;28;20439;-48
2022/08/16 01:19:14;;;;;;;1.97;0.90;;;16.80;99.90;;;;;;5112400;28;20446;-48
2022/08/16 01:21:46;;;;;;;1.70;1.10;;;16.70;99.90;;;;;;5112500;28;20446;-48
2022/08/16 01:24:20;;;;;;;1.93;0.90;;;16.80;99.90;;;;;;5112578;28;20474;-48
2022/08/16 01:26:50;;;;;;;1.53;1.10;;;16.70;99.90;;;;;;5112251;28;20949;-48
2022/08/16 01:29:23;;;;;;;4.03;1.20;;;16.20;99.90;;;;;;5112265;28;20496;-48
2022/08/16 01:31:51;;;;;;;1.80;1.10;;;16.20;99.90;;;;;;5112698;28;20450;-51
2022/08/16 01:34:19;;;;;;;2.30;0.90;;;16.30;99.90;;;;;;5112120;28;20466;-48
2022/08/16 01:36:46;;;;;;;1.53;1.20;;;16.20;99.90;;;;;;5112086;28;20917;-49
2022/08/16 01:39:17;;;;;;;1.20;0.77;;;16.30;99.90;;;;;;5111927;28;20438;-48
2022/08/16 01:41:46;;;;;;;3.10;1.10;;;16.20;99.90;;;;;;5112211;28;20843;-47
2022/08/16 01:44:13;;;;;;;1.70;1.33;;;16.10;99.90;;;;;;5112170;28;20443;-47
2022/08/16 01:46:42;;;;;;;1.20;1.00;;;16.20;99.90;;;;;;5111843;28;20431;-48
2022/08/16 01:49:12;;;;;;;1.37;0.97;;;16.30;99.90;;;;;;5111866;28;20684;-47
2022/08/16 01:51:41;;;;;;;1.90;1.00;;;16.30;99.90;;;;;;5111670;28;20823;-47
2022/08/16 01:54:08;;;;;;;1.50;1.03;;;16.40;99.90;;;;;;5111482;28;20523;-48
2022/08/16 01:56:38;;;;;;;2.20;0.90;;;16.50;99.90;;;;;;5111573;28;21027;-48
2022/08/16 01:59:09;;;;;;;2.03;0.90;;;16.60;99.90;;;;;;5111892;28;20891;-48
2022/08/16 02:01:36;;;;;;;1.70;1.00;;;16.70;99.90;;;;;;5112163;28;20430;-48
2022/08/16 02:04:04;;;;;;;1.50;1.10;;;16.30;99.90;;;;;;5112014;28;20805;-48
2022/08/16 02:06:32;;;;;;;2.07;1.30;;;16.10;99.90;;;;;;5111281;28;20811;-48
2022/08/16 02:09:00;;;;;;;2.60;1.17;;;16.00;99.90;;;;;;5111310;28;20746;-48
2022/08/16 02:11:29;;;;;;;8.47;1.47;;;16.00;99.90;;;;;;5111295;28;20494;-49
2022/08/16 02:13:57;;;;;;;1.60;1.00;;;16.20;99.90;;;;;;5111319;28;20987;-47
2022/08/16 02:16:25;;;;;;;2.17;1.13;;;16.20;99.90;;;;;;5111567;28;20450;-48
2022/08/16 02:18:52;;;;;;;2.27;1.13;;;16.10;99.90;;;;;;5110988;28;20993;-48
2022/08/16 02:21:20;;;;;;;1.40;1.20;;;16.00;99.90;;;;;;5111401;28;20454;-47
2022/08/16 02:23:47;;;;;;;1.83;1.10;;;16.10;99.90;;;;;;5111097;28;20967;-47
2022/08/16 02:26:15;;;;;;;1.80;0.90;;;16.20;99.90;;;;;;5111157;28;20430;-48
2022/08/16 02:28:43;;;;;;;1.80;1.10;;;16.10;99.90;;;;;;5110894;28;20683;-48
2022/08/16 02:31:14;;;;;;;7.07;1.40;;;16.10;99.90;;;;;;5111184;28;20764;-47
2022/08/16 02:33:42;;;;;;;2.70;1.20;;;16.10;99.90;;;;;;5111153;28;20446;-47
2022/08/16 02:36:10;;;;;;;2.90;1.33;;;16.00;99.90;;;;;;5111028;28;20431;-48
2022/08/16 02:38:39;;;;;;;1.50;1.20;;;16.00;99.90;;;;;;5110927;28;21051;-47
2022/08/16 02:41:08;;;;;;;1.47;1.13;;;15.80;99.90;;;;;;5111057;28;20434;-47
2022/08/16 02:43:36;;;;;;;2.70;1.17;;;16.00;99.90;;;;;;5111115;28;20423;-48
2022/08/16 02:46:04;;;;;;;1.90;1.10;;;16.10;99.90;;;;;;5110834;28;20438;-47
2022/08/16 02:48:33;;;;;;;1.90;0.83;;;16.20;99.90;;;;;;5110626;28;20450;-48
2022/08/16 02:51:02;;;;;;;1.20;0.80;;;16.40;99.90;;;;;;5110593;28;20847;-47
2022/08/16 02:53:30;;;;;;;1.60;1.10;;;16.50;99.90;;;;;;5110580;28;20781;-48
2022/08/16 02:55:57;;;;;;;2.37;1.17;;;16.10;99.90;;;;;;5110276;28;20470;-49
2022/08/16 02:58:25;;;;;;;1.43;0.97;;;16.10;99.90;;;;;;5110801;28;20474;-48
2022/08/16 03:00:52;;;;;;;1.77;1.17;;;16.10;99.90;;;;;;5109896;28;20453;-47
2022/08/16 03:03:20;;;;;;;2.07;1.43;;;16.10;99.90;;;;;;5110634;28;20788;-48
2022/08/16 03:05:50;;;;;;;1.40;0.93;;;16.30;99.90;;;;;;5110055;28;20508;-48
2022/08/16 03:08:17;;;;;;;4.60;1.10;;;16.10;99.90;;;;;;5110706;28;20458;-48
2022/08/16 03:10:45;;;;;;;1.70;0.90;;;16.10;99.90;;;;;;5110303;28;20959;-47
2022/08/16 03:13:12;;;;;;;1.50;1.07;;;16.10;99.90;;;;;;5110408;28;20438;-48
2022/08/16 03:15:39;;;;;;;1.97;0.90;;;16.10;99.90;;;;;;5110421;28;20870;-49
2022/08/16 03:18:06;;;;;;;2.00;1.63;;;16.10;99.90;;;;;;5110439;28;20497;-47
2022/08/16 03:20:33;;;;;;;2.23;1.03;;;15.70;99.90;;;;;;5110134;28;20423;-49
2022/08/16 03:23:02;;;;;;;1.67;1.23;;;15.90;99.90;;;;;;5110393;28;20504;-47
2022/08/16 03:25:30;;;;;;;2.23;1.20;;;16.00;99.90;;;;;;5110254;28;20443;-48
2022/08/16 03:27:57;;;;;;;1.40;1.03;;;15.90;99.90;;;;;;5160381;22;20976;-49
2022/08/16 03:30:27;;;;;;;2.63;1.10;;;15.90;99.90;;;;;;5089386;28;20448;-49
2022/08/16 03:32:54;;;;;;;1.97;1.10;;;15.30;99.90;;;;;;5089737;28;20455;-51
2022/08/16 03:35:25;;;;;;;1.40;1.00;;;15.40;99.90;;;;;;5089801;28;20479;-50
2022/08/16 03:37:55;;;;;;;2.13;1.43;;;15.50;99.90;;;;;;5089898;28;20475;-49
2022/08/16 03:40:24;;;;;;;10.20;1.37;;;15.40;99.90;;;;;;5089795;28;20451;-50
2022/08/16 03:42:51;;;;;;;2.30;1.20;;;15.60;99.90;;;;;;5090147;28;20508;-50
2022/08/16 03:45:19;;;;;;;2.00;1.30;;;15.60;99.90;;;;;;5089951;28;20447;-49
2022/08/16 03:47:47;;;;;;;2.13;1.20;;;15.50;99.90;;;;;;5089561;28;20447;-48
2022/08/16 03:50:15;;;;;;;1.83;1.27;;;15.40;99.90;;;;;;5089468;28;20463;-49
2022/08/16 03:52:42;;;;;;;2.00;1.40;;;15.30;99.90;;;;;;5089639;28;20434;-49
2022/08/16 03:55:11;;;;;;;2.20;1.07;;;15.50;99.90;;;;;;5089504;28;20456;-49
2022/08/16 03:57:39;;;;;;;1.30;0.90;;;15.50;99.90;;;;;;5089467;28;20468;-49
2022/08/16 04:00:12;;;;;;;1.50;0.90;;;15.50;99.90;;;;;;5089441;28;20504;-49
2022/08/16 04:02:40;;;;;;;1.90;1.27;;;15.70;99.90;;;;;;5089801;28;20451;-49
2022/08/16 04:05:08;;;;;;;2.77;1.83;;;15.60;99.90;;;;;;5089264;28;20483;-49
2022/08/16 04:07:36;;;;;;;2.00;1.27;;;15.40;99.90;;;;;;5089828;28;20499;-49
2022/08/16 04:10:04;;;;;;;1.93;1.43;;;15.50;99.90;;;;;;5089367;28;20448;-49
2022/08/16 04:12:32;;;;;;;2.90;1.50;;;15.70;99.90;;;;;;5089583;28;20452;-49
2022/08/16 04:15:00;;;;;;;2.50;1.20;;;15.70;99.90;;;;;;5093241;28;20463;-49
2022/08/16 04:17:28;;;;;;;1.67;1.30;;;15.60;99.90;;;;;;5093175;28;20471;-49
2022/08/16 04:19:56;;;;;;;2.17;1.30;;;15.70;99.90;;;;;;5093187;28;20512;-50
2022/08/16 04:22:23;;;;;;;1.67;1.17;;;15.90;99.90;;;;;;5093391;28;20498;-49
2022/08/16 04:24:50;;;;;;;1.20;1.00;;;15.70;99.90;;;;;;5093344;28;20928;-49
2022/08/16 04:27:17;;;;;;;3.07;1.23;;;15.60;99.90;;;;;;5093008;28;20440;-50
2022/08/16 04:29:44;;;;;;;1.50;1.20;;;15.30;99.90;;;;;;5092924;28;20435;-49
2022/08/16 04:32:13;;;;;;;1.60;0.90;;;15.00;99.90;;;;;;5092996;28;20451;-49
2022/08/16 04:34:40;;;;;;;2.43;1.43;;;14.80;99.90;;;;;;5093040;28;20499;-49
2022/08/16 04:37:07;;;;;;;2.00;1.30;;;14.70;99.90;;;;;;5092988;28;20520;-49
2022/08/16 04:39:36;;;;;;;1.90;1.20;;;14.80;99.90;;;;;;5092861;28;20501;-49
2022/08/16 04:42:04;;;;;;;1.97;1.40;;;15.10;99.90;;;;;;5093161;28;20447;-49
2022/08/16 04:44:31;;;;;;;3.73;1.30;;;15.20;99.90;;;;;;5092852;28;20929;-49
2022/08/16 04:46:58;;;;;;;1.43;0.90;;;15.20;99.90;;;;;;5093013;28;20684;-49
2022/08/16 04:49:27;;;;;;;2.70;1.03;;;15.30;99.90;;;;;;5092651;28;20955;-49
2022/08/16 04:51:54;;;;;;;1.70;1.10;;;14.90;99.90;;;;;;5092720;28;20480;-50
2022/08/16 04:54:21;;;;;;;1.40;1.00;;;15.00;99.90;;;;;;5092458;28;20448;-49
2022/08/16 04:56:48;;;;;;;2.17;1.60;;;14.70;99.90;;;;;;5092057;28;20475;-49
2022/08/16 04:59:15;;;;;;;1.80;1.20;;;14.80;99.90;;;;;;5092295;28;20591;-51
2022/08/16 05:01:42;;;;;;;2.00;1.40;;;14.90;99.90;;;;;;5092477;28;20443;-48
2022/08/16 05:04:09;;;;;;;1.57;1.20;;;15.10;99.90;;;;;;5092641;28;20916;-49
2022/08/16 05:06:38;;;;;;;1.70;1.50;;;15.20;99.90;;;;;;5091958;28;20443;-49
2022/08/16 05:09:05;;;;;;;4.90;1.37;;;15.40;99.90;;;;;;5091947;28;20477;-49
2022/08/16 05:11:32;;;;;;;2.43;1.30;;;15.40;99.90;;;;;;5092182;28;20845;-50
2022/08/16 05:14:00;;;;;;;2.47;1.70;;;15.60;99.90;;;;;;5092535;28;20448;-49
2022/08/16 05:16:30;;;;;;;3.43;1.50;;;15.40;99.90;;;;;;5092169;28;20471;-46
2022/08/16 05:18:58;;;;;;;1.80;1.23;;;15.50;99.90;;;;;;5091961;28;20546;-49
2022/08/16 05:21:27;;;;;;;2.90;1.30;;;15.60;99.90;;;;;;5092061;28;20428;-49
2022/08/16 05:23:56;;;;;;;2.90;1.40;;;15.40;99.90;;;;;;5091569;28;20469;-49
2022/08/16 05:26:24;;;;;;;2.37;1.43;;;15.10;99.90;;;;;;5092184;28;21032;-50
2022/08/16 05:28:51;;;;;;;1.90;1.17;;;15.40;99.90;;;;;;5091672;28;20566;-51
2022/08/16 05:31:18;;;;;;;1.70;1.27;;;15.40;99.90;;;;;;5091918;28;20493;-49
2022/08/16 05:33:45;;;;;;;2.30;1.63;;;15.10;99.90;;;;;;5091961;28;20436;-49
2022/08/16 05:36:12;;;;;;;1.67;1.33;;;15.30;99.90;;;;;;5091670;28;20505;-49
2022/08/16 05:38:39;;;;;;;2.67;1.60;;;15.30;99.90;;;;;;5092110;28;20450;-49
2022/08/16 05:41:08;;;;;;;1.60;1.27;;;15.30;99.90;;;;;;5091809;28;20975;-49
2022/08/16 05:43:35;;;;;;;2.70;1.10;;;15.50;99.90;;;;;;5091930;28;20493;-49
2022/08/16 05:46:02;;;;;;;4.43;1.20;;;15.40;99.90;;;;;;5091679;28;20492;-49
2022/08/16 05:48:29;;;;;;;1.70;1.20;;;15.50;99.90;;;;;;5091491;28;20528;-49
2022/08/16 05:50:56;;;;;;;3.00;1.30;;;15.30;99.90;;;;;;5091338;28;20455;-49
2022/08/16 05:53:23;;;;;;;4.33;1.40;;;15.30;99.90;;;;;;5091476;28;20443;-49
2022/08/16 05:55:50;;;;;;;1.50;1.10;;;15.50;99.90;;;;;;5091078;28;20495;-49
2022/08/16 05:58:19;;;;;;;1.93;1.23;;;15.70;99.90;;;;;;5091361;28;20479;-49
2022/08/16 06:00:46;;;;;;;2.23;1.30;;;15.60;99.90;;;;;;5091196;28;20444;-48
2022/08/16 06:03:13;;;;;;;1.77;1.10;;;15.80;99.90;;;;;;5091536;28;20771;-49
2022/08/16 06:05:40;;;;;;;2.00;1.40;;;15.70;99.90;;;;;;5090982;28;20936;-49
2022/08/16 06:08:07;;;;;;;2.30;1.47;;;15.30;99.90;;;;;;5090973;28;20451;-49
2022/08/16 06:10:34;;;;;;;1.80;1.23;;;14.80;99.90;;;;;;5091330;28;20447;-49
2022/08/16 06:13:01;;;;;;;3.03;1.70;;;14.70;99.90;;;;;;5091085;28;20458;-50
2022/08/16 06:15:30;;;;;;;2.63;1.60;;;14.90;99.90;;;;;;5090880;28;20463;-49
2022/08/16 06:17:57;;;;;;;2.10;1.40;;;15.40;99.90;;;;;;5091126;28;20471;-49
2022/08/16 06:20:28;;;;;;;1.63;1.53;;;15.70;99.90;;;;;;5090565;28;21044;-49
2022/08/16 06:22:56;;;;;;;1.73;1.20;;;15.60;99.90;;;;;;5090897;28;20807;-49
2022/08/16 06:25:24;;;;;;;2.57;1.30;;;15.70;99.90;;;;;;5091022;28;20447;-49
2022/08/16 06:27:52;;;;;;;1.63;1.20;;;15.60;99.90;;;;;;5090699;28;20540;-49
2022/08/16 06:30:20;;;;;;;5.10;1.63;;;15.50;99.90;;;;;;5090677;28;20452;-50
2022/08/16 06:32:48;;;;;;;2.43;1.30;;;15.40;99.90;;;;;;5091171;28;20696;-49
2022/08/16 06:35:16;;;;;;;1.80;1.47;;;15.30;99.90;;;;;;5090023;28;20423;-49
2022/08/16 06:37:43;;;;;;;2.83;1.33;;;15.50;99.90;;;;;;5090563;28;20459;-49
2022/08/16 06:40:11;;;;;;;2.20;1.60;;;15.60;99.90;;;;;;5090492;28;21021;-49
2022/08/16 06:42:38;;;;;;;2.30;1.70;;;15.50;99.90;;;;;;5090547;28;20501;-49
2022/08/16 06:45:07;;;;;;;1.87;1.57;;;15.70;99.90;;;;;;5090498;28;20470;-49
2022/08/16 06:47:34;;;;;;;2.80;1.50;;;15.70;99.90;;;;;;5090689;28;20459;-50
2022/08/16 06:50:02;;;;;;;2.60;1.37;;;15.80;99.90;;;;;;5090308;28;20455;-48
2022/08/16 06:52:35;;;;;;;1.93;1.60;;;15.90;99.90;;;;;;5090508;28;20448;-49
2022/08/16 06:55:02;;;;;;;4.80;3.50;;;15.60;99.90;;;;;;5089892;28;20436;-49
2022/08/16 06:57:29;;;;;;;4.13;1.53;;;15.90;99.90;;;;;;5089966;28;20472;-48
2022/08/16 06:59:56;;;;;;;2.17;1.80;;;16.20;99.90;;;;;;5090111;28;20463;-50
2022/08/16 07:02:24;;;;;;;2.27;1.37;;;16.30;99.90;;;;;;5090636;28;20467;-49
2022/08/16 07:04:51;;;;;;;3.03;1.63;;;16.40;99.90;;;;;;5090313;28;20455;-50
2022/08/16 07:07:20;;;;;;;2.30;1.70;;;16.60;99.90;;;;;;5089500;28;20474;-49
2022/08/16 07:09:48;;;;;;;2.13;1.60;;;16.90;99.90;;;;;;5090020;28;20431;-49
2022/08/16 07:12:16;;;;;;;2.13;1.10;;;17.00;99.90;;;;;;5090094;28;20455;-49
2022/08/16 07:14:47;;;;;;;2.00;1.43;;;17.10;99.90;;;;;;5089982;28;20492;-49
2022/08/16 07:17:17;;;;;;;2.13;1.57;;;17.10;99.90;;;;;;5089936;28;20493;-50
2022/08/16 07:19:45;;;;;;;2.60;1.47;;;16.60;99.90;;;;;;5089562;28;20438;-49
2022/08/16 07:22:12;;;;;;;1.93;1.60;;;16.60;99.90;;;;;;5086446;28;20436;-49
2022/08/16 07:24:40;;;;;;;2.23;1.60;;;16.70;99.90;;;;;;5069671;28;20476;-49
2022/08/16 07:27:07;;;;;;;2.00;1.20;;;16.50;99.90;;;;;;5072818;28;20455;-49
2022/08/16 07:29:34;;;;;;;5.27;2.00;;;16.60;99.90;;;;;;5069444;28;20452;-49
2022/08/16 07:32:01;;;;;;;2.20;1.57;;;16.70;99.90;;;;;;5069498;28;20436;-49
2022/08/16 07:34:28;;;;;;;3.73;1.60;;;16.90;99.90;;;;;;5069735;28;20444;-49
2022/08/16 07:36:55;;;;;;;3.80;1.93;;;16.90;99.90;;;;;;5069612;28;20491;-49
2022/08/16 07:39:23;;;;;;;2.00;1.80;;;17.00;99.90;;;;;;5069422;28;21037;-49
2022/08/16 07:41:51;;;;;;;2.83;1.60;;;16.90;99.90;;;;;;5069491;28;20448;-49
2022/08/16 07:44:18;;;;;;;3.57;2.10;;;16.60;99.90;;;;;;5069318;28;20480;-49
2022/08/16 07:46:45;;;;;;;2.57;1.60;;;16.60;99.90;;;;;;5070456;28;20509;-49
2022/08/16 07:49:12;;;;;;;1.90;1.50;;;16.70;99.90;;;;;;5073372;28;20518;-49
2022/08/16 07:51:39;;;;;;;2.80;1.73;;;16.80;99.90;;;;;;5073582;28;20486;-49
2022/08/16 07:54:09;;;;;;;2.07;1.70;;;16.70;99.90;;;;;;5073273;28;20486;-49
2022/08/16 07:56:36;;;;;;;3.53;1.57;;;16.90;99.90;;;;;;5073260;28;20460;-49
2022/08/16 07:59:05;;;;;;;1.63;1.50;;;16.60;99.90;;;;;;5072718;28;20876;-49
2022/08/16 08:01:33;;;;;;;1.87;1.30;;;16.70;99.90;;;;;;5073364;28;20523;-49
2022/08/16 08:04:01;;;;;;;2.03;1.70;;;16.80;99.90;;;;;;5073129;28;20436;-49
2022/08/16 08:06:31;;;;;;;2.93;1.70;;;17.10;99.90;;;;;;5073205;28;20440;-49
2022/08/16 08:08:59;;;;;;;7.00;2.47;;;17.40;99.90;;;;;;5073160;28;20448;-50
2022/08/16 08:11:28;;;;;;;2.90;1.90;;;17.60;99.90;;;;;;5073273;28;20448;-49
2022/08/16 08:13:56;;;;;;;3.20;1.60;;;17.50;99.90;;;;;;5073044;28;20444;-49
2022/08/16 08:16:24;;;;;;;2.23;1.73;;;17.20;99.90;;;;;;5072721;28;20562;-49
2022/08/16 08:18:53;;;;;;;2.40;1.50;;;17.40;99.90;;;;;;5072685;28;20464;-48
2022/08/16 08:21:21;;;;;;;2.70;1.90;;;17.50;99.90;;;;;;5072693;28;20436;-49
2022/08/16 08:23:48;;;;;;;2.87;1.83;;;17.70;99.90;;;;;;5072884;28;20432;-50
2022/08/16 08:26:16;;;;;;;2.10;1.47;;;17.70;99.90;;;;;;5072470;28;20432;-49
2022/08/16 08:28:43;;;;;;;2.17;1.97;;;17.80;99.90;;;;;;5072698;28;20977;-49
2022/08/16 08:31:10;;;;;;;2.10;1.80;;;17.90;99.90;;;;;;5072855;28;20677;-49
2022/08/16 08:33:39;;;;;;;3.00;1.87;;;18.10;99.90;;;;;;5072768;28;20436;-49
2022/08/16 08:36:10;;;;;;;2.60;1.90;;;18.20;99.90;;;;;;5072531;28;20877;-49
2022/08/16 08:38:37;;;;;;;3.20;1.77;;;18.70;99.90;;;;;;5072430;28;20805;-49
2022/08/16 08:41:07;;;;;;;2.27;1.60;;;18.20;99.90;;;;;;5072434;28;20926;-49
2022/08/16 08:43:34;;;;;;;2.23;1.67;;;18.20;99.90;;;;;;5072786;28;20716;-49
2022/08/16 08:46:01;;;;;;;3.87;2.60;;;18.20;99.90;;;;;;5072537;28;20475;-49
2022/08/16 08:48:29;;;;;;;4.33;1.90;;;18.20;99.90;;;;;;5070748;28;20496;-49
2022/08/16 08:50:58;;;;;;;2.60;2.00;;;18.70;99.90;;;;;;5072188;28;20437;-49
2022/08/16 08:53:25;;;;;;;3.03;1.50;;;18.60;99.90;;;;;;5072436;28;20510;-49
2022/08/16 08:55:53;;;;;;;2.33;1.97;;;19.00;99.90;;;;;;5072401;28;20436;-49
2022/08/16 08:58:20;;;;;;;3.37;1.70;;;18.60;99.90;;;;;;5071775;28;20778;-49
2022/08/16 09:00:47;;;;;;;1.90;1.60;;;18.70;99.90;;;;;;5071768;28;20843;-49
2022/08/16 09:03:14;;;;;;;2.23;2.03;;;18.70;99.90;;;;;;5071893;28;20455;-50
2022/08/16 09:05:41;;;;;;;2.40;1.93;;;18.90;99.90;;;;;;5072153;28;20464;-49
2022/08/16 09:08:10;;;;;;;2.67;1.83;;;19.30;99.90;;;;;;5072178;28;20533;-50
2022/08/16 09:10:37;;;;;;;2.20;1.70;;;19.00;99.90;;;;;;5071790;28;20510;-49
2022/08/16 09:13:04;;;;;;;2.23;1.80;;;19.00;99.90;;;;;;5071958;28;20429;-49
2022/08/16 09:15:32;;;;;;;2.30;1.83;;;19.20;99.90;;;;;;5072156;28;20491;-49
2022/08/16 09:17:59;;;;;;;1.93;1.60;;;19.40;99.90;;;;;;5071777;28;20532;-50
2022/08/16 09:20:28;;;;;;;2.80;2.17;;;19.00;99.90;;;;;;5071518;28;20460;-49
2022/08/16 09:22:56;;;;;;;2.67;1.90;;;19.20;99.90;;;;;;5071837;28;20476;-50
2022/08/16 09:25:25;;;;;;;2.90;2.13;;;19.30;99.90;;;;;;5071518;28;20851;-50
2022/08/16 09:30:20;;;;;;;2.63;2.27;;;19.70;99.90;;;;;;5086990;28;20479;-49
2022/08/16 09:32:48;;;;;;;2.13;1.90;;;19.80;99.90;;;;;;5091693;28;20526;-49
2022/08/16 09:35:15;;;;;;;2.10;1.90;;;19.70;99.90;;;;;;5091908;28;20443;-48
2022/08/16 09:37:42;;;;;;;2.20;1.93;;;19.90;99.90;;;;;;5091631;28;20496;-50
2022/08/16 09:40:10;;;;;;;2.63;2.43;;;20.10;99.90;;;;;;5091451;28;20455;-48
2022/08/16 09:42:39;;;;;;;2.87;2.33;;;19.80;99.90;;;;;;5091582;28;20440;-50
2022/08/16 09:45:07;;;;;;;4.03;2.30;;;19.90;99.90;;;;;;5091848;28;20790;-48
2022/08/16 09:47:39;;;;;;;2.43;1.60;;;20.00;99.90;;;;;;5091093;28;20443;-48
2022/08/16 09:50:07;;;;;;;4.27;2.50;;;20.10;99.90;;;;;;5090896;28;20475;-50
2022/08/16 09:52:36;;;;;;;3.67;2.50;;;20.30;99.90;;;;;;5091242;28;20799;-48
2022/08/16 09:55:04;;;;;;;3.00;2.27;;;20.30;99.90;;;;;;5091581;28;20447;-48
2022/08/16 09:57:31;;;;;;;2.90;2.47;;;20.70;99.90;;;;;;5091361;28;20559;-48
2022/08/16 10:00:01;;;;;;;2.37;1.60;;;20.90;99.90;;;;;;5091108;28;20967;-50
2022/08/16 10:02:28;;;;;;;2.40;2.20;;;20.90;99.90;;;;;;5091330;28;20493;-48
2022/08/16 10:04:57;;;;;;;3.20;2.23;;;20.50;99.90;;;;;;5091310;28;20448;-48
2022/08/16 10:07:25;;;;;;;2.33;2.13;;;20.70;99.90;;;;;;5084459;28;20497;-48
2022/08/16 10:09:52;;;;;;;2.50;2.03;;;20.80;99.90;;;;;;5082199;28;20494;-48
2022/08/16 10:15:07;;;;;;;2.33;2.10;;;20.80;99.90;;;;;;5071028;28;20498;-49
2022/08/16 10:17:34;;;;;;;2.87;2.30;;;20.50;99.90;;;;;;5072346;28;20712;-49
2022/08/16 10:20:01;;;;;;;2.13;1.93;;;20.60;99.90;;;;;;5081935;28;20479;-49
2022/08/16 10:22:28;;;;;;;2.53;2.00;;;20.90;99.90;;;;;;5073959;28;20460;-49
2022/08/16 10:24:55;;;;;;;3.40;2.70;;;21.10;99.90;;;;;;5070222;28;20515;-50
2022/08/16 10:27:23;;;;;;;2.10;1.90;;;21.00;99.90;;;;;;5070445;28;20428;-50
2022/08/16 10:29:49;;;;;;;2.63;2.43;;;21.20;99.90;;;;;;5070184;28;20819;-51
2022/08/16 10:32:19;;;;;;;2.87;2.33;;;21.30;99.90;;;;;;5070649;28;20460;-48
2022/08/16 10:34:46;;;;;;;2.67;2.20;;;21.60;99.90;;;;;;5070349;28;20437;-49
2022/08/16 10:37:13;;;;;;;2.53;2.30;;;21.30;99.90;;;;;;5070302;28;20482;-49
2022/08/16 10:39:40;;;;;;;2.83;2.40;;;21.40;99.90;;;;;;5071785;28;20488;-50
2022/08/16 10:42:07;;;;;;;4.23;2.83;;;21.50;99.90;;;;;;5083914;28;20425;-48
2022/08/16 10:44:35;;;;;;;2.90;2.47;;;21.80;99.90;;;;;;5070509;28;20486;-51
2022/08/16 10:47:02;;;;;;;2.60;2.40;;;21.90;99.90;;;;;;5075010;28;20465;-47
2022/08/16 10:49:30;;;;;;;3.27;2.30;;;21.40;99.90;;;;;;5086647;28;20463;-48
2022/08/16 10:51:57;;;;;;;2.43;2.23;;;21.40;99.90;;;;;;5088834;28;20443;-48
2022/08/16 10:54:25;;;;;;;2.30;2.10;;;21.70;99.90;;;;;;5071074;28;20479;-49
2022/08/16 10:56:54;;;;;;;2.57;2.30;;;21.90;99.90;;;;;;5077664;28;20541;-49
2022/08/16 10:59:22;;;;;;;2.50;2.30;;;22.00;99.90;;;;;;5076866;28;20478;-50
2022/08/16 11:01:50;;;;;;;4.50;1.90;;;22.20;99.90;;;;;;5089819;28;21146;-49
2022/08/16 11:04:17;;;;;;;1.97;1.77;;;22.10;99.90;;;;;;5090418;28;20955;-49
2022/08/16 11:06:46;;;;;;;2.20;2.00;;;22.30;99.90;;;;;;5087087;28;20439;-48
2022/08/16 11:09:14;;;;;;;4.03;2.00;;;22.30;99.90;;;;;;5082351;28;20476;-49
2022/08/16 11:11:41;;;;;;;1.90;1.43;;;22.20;99.90;;;;;;5087873;28;20431;-50
2022/08/16 11:14:08;;;;;;;3.20;2.00;;;22.30;99.90;;;;;;5088255;28;20519;-48
2022/08/16 11:16:35;;;;;;;3.50;2.30;;;22.60;99.90;;;;;;5087662;28;20468;-48
2022/08/16 11:19:05;;;;;;;6.20;2.50;;;22.70;99.90;;;;;;5087877;28;20475;-48
2022/08/16 11:21:32;;;;;;;3.60;2.53;;;22.70;99.90;;;;;;5087633;28;20432;-49
2022/08/16 11:24:00;;;;;;;2.60;1.80;;;22.60;99.90;;;;;;5088779;28;20475;-51
2022/08/16 11:26:28;;;;;;;3.30;1.73;;;22.60;99.90;;;;;;5089561;28;20431;-50
2022/08/16 11:28:56;;;;;;;2.70;2.20;;;22.80;99.90;;;;;;5089582;28;20467;-49
2022/08/16 11:31:23;;;;;;;2.83;1.80;;;22.60;99.90;;;;;;5089796;28;20696;-48
2022/08/16 11:33:51;;;;;;;5.73;4.70;;;22.90;99.90;;;;;;5089560;28;20444;-50
2022/08/16 11:36:19;;;;;;;3.00;2.27;;;22.90;99.90;;;;;;5089450;28;20431;-52
2022/08/16 11:38:46;;;;;;;3.23;2.57;;;23.00;99.90;;;;;;5088812;28;20493;-51
2022/08/16 11:41:15;;;;;;;3.50;2.70;;;23.10;99.90;;;;;;5089157;28;20424;-48
2022/08/16 11:43:42;;;;;;;4.73;2.03;;;23.00;99.90;;;;;;5089704;28;20646;-48
2022/08/16 11:46:12;;;;;;;2.30;2.10;;;23.00;99.90;;;;;;5089502;28;20438;-50
2022/08/16 11:48:39;;;;;;;2.70;1.73;;;22.90;99.90;;;;;;5089478;28;20525;-49
2022/08/16 11:51:07;;;;;;;3.90;1.90;;;23.20;99.90;;;;;;5089238;28;20440;-48
2022/08/16 11:53:34;;;;;;;3.00;2.27;;;23.10;99.90;;;;;;5089640;28;20500;-48
2022/08/16 11:56:01;;;;;;;2.73;2.20;;;23.20;99.90;;;;;;5089409;28;21009;-49
2022/08/16 11:58:33;;;;;;;23.00;5.27;;;23.30;99.90;;;;;;5089652;28;20467;-48
2022/08/16 12:01:00;;;;;;;2.87;2.57;;;23.40;99.90;;;;;;5089628;28;20479;-48
2022/08/16 12:03:32;;;;;;;3.23;2.20;;;23.50;99.90;;;;;;5089421;28;20416;-48
2022/08/16 12:06:01;;;;;;;3.47;2.27;;;23.50;99.90;;;;;;5089199;28;20432;-49
2022/08/16 12:08:29;;;;;;;3.53;2.50;;;23.50;99.90;;;;;;5089309;28;20455;-50
2022/08/16 12:10:58;;;;;;;2.60;2.40;;;23.60;99.90;;;;;;5089211;28;20432;-49
2022/08/16 12:13:26;;;;;;;11.03;4.63;;;23.70;99.90;;;;;;5089403;28;20683;-50
2022/08/16 12:15:55;;;;;;;3.50;3.20;;;23.70;99.90;;;;;;5089473;28;20451;-50
2022/08/16 12:18:22;;;;;;;3.80;3.40;;;23.80;99.90;;;;;;5089021;28;20525;-48
2022/08/16 12:20:49;;;;;;;7.03;2.83;;;23.80;99.90;;;;;;5089246;28;20424;-49
2022/08/16 12:23:16;;;;;;;11.30;4.37;;;24.00;99.90;;;;;;5089344;28;20524;-51
2022/08/16 12:25:44;;;;;;;33.13;6.60;;;23.90;99.90;;;;;;5089003;28;20451;-48
2022/08/16 12:28:11;;;;;;;5.10;2.63;;;23.80;99.90;;;;;;5089221;28;20467;-50
2022/08/16 12:30:41;;;;;;;4.83;3.63;;;24.20;99.90;;;;;;5088905;28;20420;-49
2022/08/16 12:33:13;;;;;;;6.20;3.80;;;24.10;99.90;;;;;;5089435;28;20439;-48
2022/08/16 12:35:40;;;;;;;18.60;4.77;;;24.10;99.90;;;;;;5092590;28;20431;-49
2022/08/16 12:38:08;;;;;;;3.10;2.70;;;24.20;99.90;;;;;;5093139;28;20475;-49
2022/08/16 12:40:38;;;;;;;8.80;3.13;;;24.30;99.90;;;;;;5092647;28;20482;-49
2022/08/16 12:43:07;;;;;;;5.10;2.93;;;24.30;99.90;;;;;;5093074;28;21051;-48
2022/08/16 12:45:39;;;;;;;5.83;3.47;;;24.30;99.90;;;;;;5092592;28;20440;-49
2022/08/16 12:50:53;;;;;;;3.13;2.80;;;24.30;99.90;;;;;;5092240;28;20434;-49
2022/08/16 12:53:22;;;;;;;3.87;3.23;;;24.40;99.90;;;;;;5093137;28;20637;-48
2022/08/16 12:55:50;;;;;;;3.37;2.80;;;24.10;99.90;;;;;;5092191;28;20439;-50
2022/08/16 12:58:18;;;;;;;2.80;2.50;;;24.00;99.90;;;;;;5092538;28;20472;-50